sensor_id;sensor_type;location;lat;lon;timestamp;P1;durP1;ratioP1;P2;durP2;ratioP2
47617;SDS011;33336;36.728;-4.414;2022-09-16T00:04:47;6.47;;;2.17;;
47617;SDS011;33336;36.728;-4.414;2022-09-16T00:09:50;4.03;;;2.03;;
47617;SDS011;33336;36.728;-4.414;2022-09-16T00:14:54;9.23;;;1.83;;
47617;SDS011;33336;36.728;-4.414;2022-09-16T00:19:58;5.72;;;1.77;;
47617;SDS011;33336;36.728;-4.414;2022-09-16T00:25:01;5.00;;;2.25;;
47617;SDS011;33336;36.728;-4.414;2022-09-16T00:30:06;8.02;;;2.35;;
47617;SDS011;33336;36.728;-4.414;2022-09-16T00:35:10;8.80;;;2.33;;
47617;SDS011;33336;36.728;-4.414;2022-09-16T00:40:13;6.72;;;1.73;;
47617;SDS011;33336;36.728;-4.414;2022-09-16T00:45:18;5.38;;;1.88;;
47617;SDS011;33336;36.728;-4.414;2022-09-16T00:50:25;5.30;;;1.95;;
47617;SDS011;33336;36.728;-4.414;2022-09-16T00:55:32;11.20;;;2.25;;
47617;SDS011;33336;36.728;-4.414;2022-09-16T01:00:40;4.03;;;2.13;;
47617;SDS011;33336;36.728;-4.414;2022-09-16T01:05:43;6.70;;;2.92;;
47617;SDS011;33336;36.728;-4.414;2022-09-16T01:10:47;4.78;;;2.65;;
47617;SDS011;33336;36.728;-4.414;2022-09-16T01:15:53;4.35;;;2.45;;
47617;SDS011;33336;36.728;-4.414;2022-09-16T01:21:07;9.07;;;3.55;;
47617;SDS011;33336;36.728;-4.414;2022-09-16T01:26:27;5.72;;;3.03;;
47617;SDS011;33336;36.728;-4.414;2022-09-16T01:31:52;5.93;;;2.75;;
47617;SDS011;33336;36.728;-4.414;2022-09-16T01:37:02;7.35;;;2.72;;
47617;SDS011;33336;36.728;-4.414;2022-09-16T01:42:14;9.40;;;3.08;;
47617;SDS011;33336;36.728;-4.414;2022-09-16T01:47:28;6.80;;;2.70;;
47617;SDS011;33336;36.728;-4.414;2022-09-16T01:52:40;8.05;;;2.60;;
47617;SDS011;33336;36.728;-4.414;2022-09-16T01:57:49;5.72;;;2.72;;
47617;SDS011;33336;36.728;-4.414;2022-09-16T02:02:57;5.25;;;3.08;;
47617;SDS011;33336;36.728;-4.414;2022-09-16T02:08:04;5.38;;;2.90;;
47617;SDS011;33336;36.728;-4.414;2022-09-16T02:13:13;5.35;;;2.85;;
47617;SDS011;33336;36.728;-4.414;2022-09-16T02:18:23;4.28;;;3.13;;
47617;SDS011;33336;36.728;-4.414;2022-09-16T02:23:30;7.00;;;3.95;;
47617;SDS011;33336;36.728;-4.414;2022-09-16T02:28:40;7.03;;;3.35;;
47617;SDS011;33336;36.728;-4.414;2022-09-16T02:33:47;5.72;;;3.20;;
47617;SDS011;33336;36.728;-4.414;2022-09-16T02:38:54;4.72;;;3.00;;
47617;SDS011;33336;36.728;-4.414;2022-09-16T02:44:02;7.45;;;3.60;;
47617;SDS011;33336;36.728;-4.414;2022-09-16T02:49:10;7.25;;;3.90;;
47617;SDS011;33336;36.728;-4.414;2022-09-16T02:54:18;8.73;;;3.20;;
47617;SDS011;33336;36.728;-4.414;2022-09-16T02:59:26;8.07;;;3.38;;
47617;SDS011;33336;36.728;-4.414;2022-09-16T03:04:32;6.82;;;3.75;;
47617;SDS011;33336;36.728;-4.414;2022-09-16T03:09:36;6.45;;;3.60;;
47617;SDS011;33336;36.728;-4.414;2022-09-16T03:20:30;5.38;;;3.78;;
47617;SDS011;33336;36.728;-4.414;2022-09-16T03:25:44;11.35;;;3.30;;
47617;SDS011;33336;36.728;-4.414;2022-09-16T03:30:55;9.45;;;3.92;;
47617;SDS011;33336;36.728;-4.414;2022-09-16T03:36:07;6.72;;;2.92;;
47617;SDS011;33336;36.728;-4.414;2022-09-16T03:41:13;5.55;;;3.17;;
47617;SDS011;33336;36.728;-4.414;2022-09-16T03:46:17;5.57;;;3.25;;
47617;SDS011;33336;36.728;-4.414;2022-09-16T03:51:22;4.70;;;2.95;;
47617;SDS011;33336;36.728;-4.414;2022-09-16T03:56:25;4.07;;;2.60;;
47617;SDS011;33336;36.728;-4.414;2022-09-16T04:01:28;8.90;;;2.92;;
47617;SDS011;33336;36.728;-4.414;2022-09-16T04:06:33;7.32;;;3.05;;
47617;SDS011;33336;36.728;-4.414;2022-09-16T04:11:35;6.00;;;2.63;;
47617;SDS011;33336;36.728;-4.414;2022-09-16T04:16:39;8.27;;;2.90;;
47617;SDS011;33336;36.728;-4.414;2022-09-16T04:21:43;7.63;;;3.10;;
47617;SDS011;33336;36.728;-4.414;2022-09-16T04:26:47;6.90;;;3.10;;
47617;SDS011;33336;36.728;-4.414;2022-09-16T04:31:50;5.65;;;2.80;;
47617;SDS011;33336;36.728;-4.414;2022-09-16T04:36:55;5.47;;;2.42;;
47617;SDS011;33336;36.728;-4.414;2022-09-16T04:41:57;5.13;;;3.08;;
47617;SDS011;33336;36.728;-4.414;2022-09-16T04:47:01;5.70;;;2.42;;
47617;SDS011;33336;36.728;-4.414;2022-09-16T04:52:06;14.93;;;4.15;;
47617;SDS011;33336;36.728;-4.414;2022-09-16T04:57:09;7.07;;;3.00;;
47617;SDS011;33336;36.728;-4.414;2022-09-16T05:02:12;5.07;;;2.88;;
47617;SDS011;33336;36.728;-4.414;2022-09-16T05:07:17;5.68;;;2.97;;
47617;SDS011;33336;36.728;-4.414;2022-09-16T05:12:19;5.70;;;2.72;;
47617;SDS011;33336;36.728;-4.414;2022-09-16T05:17:23;7.53;;;2.88;;
47617;SDS011;33336;36.728;-4.414;2022-09-16T05:22:27;5.28;;;3.20;;
47617;SDS011;33336;36.728;-4.414;2022-09-16T05:27:31;5.03;;;2.60;;
47617;SDS011;33336;36.728;-4.414;2022-09-16T05:32:35;3.47;;;2.38;;
47617;SDS011;33336;36.728;-4.414;2022-09-16T05:37:40;9.68;;;2.65;;
47617;SDS011;33336;36.728;-4.414;2022-09-16T05:42:42;9.85;;;3.28;;
47617;SDS011;33336;36.728;-4.414;2022-09-16T05:47:50;5.73;;;2.30;;
47617;SDS011;33336;36.728;-4.414;2022-09-16T05:52:55;6.60;;;2.10;;
47617;SDS011;33336;36.728;-4.414;2022-09-16T05:57:58;6.97;;;2.92;;
47617;SDS011;33336;36.728;-4.414;2022-09-16T06:03:01;7.10;;;2.78;;
47617;SDS011;33336;36.728;-4.414;2022-09-16T06:08:05;8.77;;;2.13;;
47617;SDS011;33336;36.728;-4.414;2022-09-16T06:13:08;5.13;;;1.85;;
47617;SDS011;33336;36.728;-4.414;2022-09-16T06:18:11;8.15;;;2.33;;
47617;SDS011;33336;36.728;-4.414;2022-09-16T06:23:17;6.30;;;2.42;;
47617;SDS011;33336;36.728;-4.414;2022-09-16T06:28:21;4.38;;;2.17;;
47617;SDS011;33336;36.728;-4.414;2022-09-16T06:33:24;7.13;;;1.80;;
47617;SDS011;33336;36.728;-4.414;2022-09-16T06:38:29;8.55;;;2.10;;
47617;SDS011;33336;36.728;-4.414;2022-09-16T06:43:32;8.18;;;1.92;;
47617;SDS011;33336;36.728;-4.414;2022-09-16T06:48:35;7.68;;;1.83;;
47617;SDS011;33336;36.728;-4.414;2022-09-16T06:53:40;13.82;;;2.67;;
47617;SDS011;33336;36.728;-4.414;2022-09-16T06:58:44;7.53;;;1.77;;
47617;SDS011;33336;36.728;-4.414;2022-09-16T07:03:50;7.07;;;1.90;;
47617;SDS011;33336;36.728;-4.414;2022-09-16T07:08:55;7.93;;;2.13;;
47617;SDS011;33336;36.728;-4.414;2022-09-16T07:13:58;6.25;;;2.30;;
47617;SDS011;33336;36.728;-4.414;2022-09-16T07:19:02;8.43;;;2.42;;
47617;SDS011;33336;36.728;-4.414;2022-09-16T07:24:08;4.70;;;2.40;;
47617;SDS011;33336;36.728;-4.414;2022-09-16T07:29:16;9.07;;;2.13;;
47617;SDS011;33336;36.728;-4.414;2022-09-16T07:34:19;8.82;;;2.10;;
47617;SDS011;33336;36.728;-4.414;2022-09-16T07:39:24;7.80;;;2.28;;
47617;SDS011;33336;36.728;-4.414;2022-09-16T07:44:26;8.75;;;2.30;;
47617;SDS011;33336;36.728;-4.414;2022-09-16T07:49:30;8.30;;;2.58;;
47617;SDS011;33336;36.728;-4.414;2022-09-16T07:54:34;9.23;;;2.70;;
47617;SDS011;33336;36.728;-4.414;2022-09-16T07:59:38;6.85;;;2.85;;
47617;SDS011;33336;36.728;-4.414;2022-09-16T08:04:41;7.57;;;2.60;;
47617;SDS011;33336;36.728;-4.414;2022-09-16T08:09:45;7.53;;;2.65;;
47617;SDS011;33336;36.728;-4.414;2022-09-16T08:14:48;10.68;;;2.40;;
47617;SDS011;33336;36.728;-4.414;2022-09-16T08:19:51;7.93;;;2.22;;
47617;SDS011;33336;36.728;-4.414;2022-09-16T08:24:56;5.00;;;2.00;;
47617;SDS011;33336;36.728;-4.414;2022-09-16T08:29:59;9.45;;;2.85;;
47617;SDS011;33336;36.728;-4.414;2022-09-16T08:35:02;5.90;;;1.80;;
47617;SDS011;33336;36.728;-4.414;2022-09-16T08:40:12;9.32;;;2.20;;
47617;SDS011;33336;36.728;-4.414;2022-09-16T08:45:18;14.95;;;2.45;;
47617;SDS011;33336;36.728;-4.414;2022-09-16T08:50:28;5.07;;;1.90;;
47617;SDS011;33336;36.728;-4.414;2022-09-16T08:55:36;6.57;;;2.45;;
47617;SDS011;33336;36.728;-4.414;2022-09-16T09:00:42;6.70;;;2.17;;
47617;SDS011;33336;36.728;-4.414;2022-09-16T09:05:49;4.80;;;1.77;;
47617;SDS011;33336;36.728;-4.414;2022-09-16T09:10:57;8.82;;;2.13;;
47617;SDS011;33336;36.728;-4.414;2022-09-16T09:16:08;7.20;;;2.40;;
47617;SDS011;33336;36.728;-4.414;2022-09-16T09:21:20;7.88;;;2.05;;
47617;SDS011;33336;36.728;-4.414;2022-09-16T09:26:33;11.82;;;2.53;;
47617;SDS011;33336;36.728;-4.414;2022-09-16T09:31:44;6.78;;;2.20;;
47617;SDS011;33336;36.728;-4.414;2022-09-16T09:36:58;11.82;;;2.65;;
47617;SDS011;33336;36.728;-4.414;2022-09-16T09:42:10;3.47;;;1.42;;
47617;SDS011;33336;36.728;-4.414;2022-09-16T09:47:20;6.22;;;1.88;;
47617;SDS011;33336;36.728;-4.414;2022-09-16T09:52:27;4.43;;;1.92;;
47617;SDS011;33336;36.728;-4.414;2022-09-16T09:57:39;7.05;;;1.58;;
47617;SDS011;33336;36.728;-4.414;2022-09-16T10:02:47;8.77;;;2.13;;
47617;SDS011;33336;36.728;-4.414;2022-09-16T10:07:50;6.85;;;1.42;;
47617;SDS011;33336;36.728;-4.414;2022-09-16T10:13:06;2.17;;;1.23;;
47617;SDS011;33336;36.728;-4.414;2022-09-16T10:18:11;5.55;;;1.65;;
47617;SDS011;33336;36.728;-4.414;2022-09-16T10:23:18;7.20;;;2.83;;
47617;SDS011;33336;36.728;-4.414;2022-09-16T10:28:25;4.35;;;1.50;;
47617;SDS011;33336;36.728;-4.414;2022-09-16T10:33:30;6.88;;;1.45;;
47617;SDS011;33336;36.728;-4.414;2022-09-16T10:38:36;5.00;;;1.80;;
47617;SDS011;33336;36.728;-4.414;2022-09-16T10:43:47;5.63;;;1.70;;
47617;SDS011;33336;36.728;-4.414;2022-09-16T10:48:52;2.85;;;0.95;;
47617;SDS011;33336;36.728;-4.414;2022-09-16T10:54:00;5.13;;;1.60;;
47617;SDS011;33336;36.728;-4.414;2022-09-16T10:59:08;5.05;;;1.33;;
47617;SDS011;33336;36.728;-4.414;2022-09-16T11:09:56;5.68;;;1.63;;
47617;SDS011;33336;36.728;-4.414;2022-09-16T11:15:15;6.57;;;1.73;;
47617;SDS011;33336;36.728;-4.414;2022-09-16T11:20:41;7.50;;;1.50;;
47617;SDS011;33336;36.728;-4.414;2022-09-16T11:26:04;4.45;;;1.45;;
47617;SDS011;33336;36.728;-4.414;2022-09-16T11:31:15;5.55;;;2.40;;
47617;SDS011;33336;36.728;-4.414;2022-09-16T11:36:32;7.85;;;2.50;;
47617;SDS011;33336;36.728;-4.414;2022-09-16T11:41:54;4.65;;;1.33;;
47617;SDS011;33336;36.728;-4.414;2022-09-16T11:47:17;4.63;;;1.73;;
47617;SDS011;33336;36.728;-4.414;2022-09-16T11:52:39;3.60;;;1.17;;
47617;SDS011;33336;36.728;-4.414;2022-09-16T11:57:56;4.60;;;1.75;;
47617;SDS011;33336;36.728;-4.414;2022-09-16T12:03:04;5.82;;;1.65;;
47617;SDS011;33336;36.728;-4.414;2022-09-16T12:08:16;10.50;;;2.67;;
47617;SDS011;33336;36.728;-4.414;2022-09-16T12:13:24;3.35;;;1.30;;
47617;SDS011;33336;36.728;-4.414;2022-09-16T12:18:33;5.32;;;1.10;;
47617;SDS011;33336;36.728;-4.414;2022-09-16T12:23:43;6.60;;;2.33;;
47617;SDS011;33336;36.728;-4.414;2022-09-16T12:28:54;3.90;;;1.52;;
47617;SDS011;33336;36.728;-4.414;2022-09-16T12:34:07;3.78;;;0.98;;
47617;SDS011;33336;36.728;-4.414;2022-09-16T12:39:14;5.35;;;1.58;;
47617;SDS011;33336;36.728;-4.414;2022-09-16T12:44:33;3.35;;;1.60;;
47617;SDS011;33336;36.728;-4.414;2022-09-16T13:01:13;6.00;;;1.42;;
47617;SDS011;33336;36.728;-4.414;2022-09-16T13:06:21;4.80;;;1.75;;
47617;SDS011;33336;36.728;-4.414;2022-09-16T13:11:28;3.25;;;1.42;;
47617;SDS011;33336;36.728;-4.414;2022-09-16T13:16:33;4.80;;;1.47;;
47617;SDS011;33336;36.728;-4.414;2022-09-16T13:21:38;5.82;;;1.60;;
47617;SDS011;33336;36.728;-4.414;2022-09-16T13:26:46;2.67;;;1.45;;
47617;SDS011;33336;36.728;-4.414;2022-09-16T13:31:49;4.55;;;1.63;;
47617;SDS011;33336;36.728;-4.414;2022-09-16T13:36:51;3.40;;;1.15;;
47617;SDS011;33336;36.728;-4.414;2022-09-16T13:41:55;5.65;;;1.40;;
47617;SDS011;33336;36.728;-4.414;2022-09-16T13:52:32;6.13;;;1.77;;
47617;SDS011;33336;36.728;-4.414;2022-09-16T13:57:47;4.68;;;1.15;;
47617;SDS011;33336;36.728;-4.414;2022-09-16T14:08:32;3.53;;;1.48;;
47617;SDS011;33336;36.728;-4.414;2022-09-16T14:13:44;3.08;;;1.08;;
47617;SDS011;33336;36.728;-4.414;2022-09-16T14:18:52;5.10;;;1.30;;
47617;SDS011;33336;36.728;-4.414;2022-09-16T14:24:05;3.53;;;1.13;;
47617;SDS011;33336;36.728;-4.414;2022-09-16T14:29:14;5.75;;;1.80;;
47617;SDS011;33336;36.728;-4.414;2022-09-16T14:34:19;3.85;;;1.08;;
47617;SDS011;33336;36.728;-4.414;2022-09-16T14:39:27;7.00;;;1.77;;
47617;SDS011;33336;36.728;-4.414;2022-09-16T14:44:34;11.90;;;2.55;;
47617;SDS011;33336;36.728;-4.414;2022-09-16T14:49:41;5.20;;;1.55;;
47617;SDS011;33336;36.728;-4.414;2022-09-16T14:59:51;4.45;;;1.20;;
47617;SDS011;33336;36.728;-4.414;2022-09-16T15:04:55;5.18;;;1.23;;
47617;SDS011;33336;36.728;-4.414;2022-09-16T15:10:02;2.67;;;1.42;;
47617;SDS011;33336;36.728;-4.414;2022-09-16T15:15:14;4.03;;;1.10;;
47617;SDS011;33336;36.728;-4.414;2022-09-16T15:20:22;7.45;;;1.67;;
47617;SDS011;33336;36.728;-4.414;2022-09-16T15:25:26;2.22;;;1.23;;
47617;SDS011;33336;36.728;-4.414;2022-09-16T15:30:35;3.05;;;1.30;;
47617;SDS011;33336;36.728;-4.414;2022-09-16T15:35:47;2.60;;;1.17;;
47617;SDS011;33336;36.728;-4.414;2022-09-16T15:40:59;4.00;;;1.05;;
47617;SDS011;33336;36.728;-4.414;2022-09-16T15:46:05;3.72;;;1.58;;
47617;SDS011;33336;36.728;-4.414;2022-09-16T15:51:20;3.88;;;1.17;;
47617;SDS011;33336;36.728;-4.414;2022-09-16T15:56:27;4.05;;;1.70;;
47617;SDS011;33336;36.728;-4.414;2022-09-16T16:01:38;3.13;;;1.25;;
47617;SDS011;33336;36.728;-4.414;2022-09-16T16:06:45;4.38;;;1.55;;
47617;SDS011;33336;36.728;-4.414;2022-09-16T16:11:55;3.33;;;1.45;;
47617;SDS011;33336;36.728;-4.414;2022-09-16T16:17:04;3.72;;;1.20;;
47617;SDS011;33336;36.728;-4.414;2022-09-16T16:22:09;6.07;;;1.30;;
47617;SDS011;33336;36.728;-4.414;2022-09-16T16:27:12;4.53;;;1.20;;
47617;SDS011;33336;36.728;-4.414;2022-09-16T16:32:19;5.15;;;1.70;;
47617;SDS011;33336;36.728;-4.414;2022-09-16T16:37:22;4.70;;;1.55;;
47617;SDS011;33336;36.728;-4.414;2022-09-16T16:42:27;3.25;;;1.17;;
47617;SDS011;33336;36.728;-4.414;2022-09-16T16:47:31;6.28;;;1.95;;
47617;SDS011;33336;36.728;-4.414;2022-09-16T16:52:35;6.20;;;1.50;;
47617;SDS011;33336;36.728;-4.414;2022-09-16T16:57:38;4.32;;;1.10;;
47617;SDS011;33336;36.728;-4.414;2022-09-16T17:02:43;4.30;;;1.58;;
47617;SDS011;33336;36.728;-4.414;2022-09-16T17:07:46;3.13;;;1.63;;
47617;SDS011;33336;36.728;-4.414;2022-09-16T17:12:50;4.45;;;1.15;;
47617;SDS011;33336;36.728;-4.414;2022-09-16T17:17:54;6.43;;;1.48;;
47617;SDS011;33336;36.728;-4.414;2022-09-16T17:22:58;4.45;;;1.88;;
47617;SDS011;33336;36.728;-4.414;2022-09-16T17:28:01;2.70;;;1.30;;
47617;SDS011;33336;36.728;-4.414;2022-09-16T17:33:06;3.25;;;1.27;;
47617;SDS011;33336;36.728;-4.414;2022-09-16T17:38:09;4.00;;;1.80;;
47617;SDS011;33336;36.728;-4.414;2022-09-16T17:43:13;4.60;;;1.58;;
47617;SDS011;33336;36.728;-4.414;2022-09-16T17:48:17;5.13;;;1.58;;
47617;SDS011;33336;36.728;-4.414;2022-09-16T17:53:22;5.50;;;1.13;;
47617;SDS011;33336;36.728;-4.414;2022-09-16T17:58:25;4.97;;;1.60;;
47617;SDS011;33336;36.728;-4.414;2022-09-16T18:03:30;4.95;;;2.00;;
47617;SDS011;33336;36.728;-4.414;2022-09-16T18:08:33;6.10;;;2.08;;
47617;SDS011;33336;36.728;-4.414;2022-09-16T18:13:37;3.92;;;1.60;;
47617;SDS011;33336;36.728;-4.414;2022-09-16T18:18:42;6.90;;;2.25;;
47617;SDS011;33336;36.728;-4.414;2022-09-16T18:23:46;8.35;;;1.60;;
47617;SDS011;33336;36.728;-4.414;2022-09-16T18:28:49;5.50;;;1.55;;
47617;SDS011;33336;36.728;-4.414;2022-09-16T18:33:55;7.13;;;1.55;;
47617;SDS011;33336;36.728;-4.414;2022-09-16T18:38:58;4.53;;;1.42;;
47617;SDS011;33336;36.728;-4.414;2022-09-16T18:44:03;5.55;;;1.95;;
47617;SDS011;33336;36.728;-4.414;2022-09-16T18:59:18;5.93;;;1.92;;
47617;SDS011;33336;36.728;-4.414;2022-09-16T19:04:24;5.40;;;3.00;;
47617;SDS011;33336;36.728;-4.414;2022-09-16T19:09:28;5.25;;;2.25;;
47617;SDS011;33336;36.728;-4.414;2022-09-16T19:14:32;8.07;;;2.20;;
47617;SDS011;33336;36.728;-4.414;2022-09-16T19:19:36;13.25;;;3.28;;
47617;SDS011;33336;36.728;-4.414;2022-09-16T19:24:39;8.80;;;2.90;;
47617;SDS011;33336;36.728;-4.414;2022-09-16T19:29:43;5.07;;;2.33;;
47617;SDS011;33336;36.728;-4.414;2022-09-16T19:34:48;8.90;;;2.70;;
47617;SDS011;33336;36.728;-4.414;2022-09-16T19:39:51;6.05;;;1.83;;
47617;SDS011;33336;36.728;-4.414;2022-09-16T19:44:54;6.30;;;1.60;;
47617;SDS011;33336;36.728;-4.414;2022-09-16T19:49:58;5.00;;;2.60;;
47617;SDS011;33336;36.728;-4.414;2022-09-16T19:55:02;7.55;;;2.53;;
47617;SDS011;33336;36.728;-4.414;2022-09-16T20:00:05;6.88;;;2.10;;
47617;SDS011;33336;36.728;-4.414;2022-09-16T20:05:16;8.98;;;2.45;;
47617;SDS011;33336;36.728;-4.414;2022-09-16T20:10:19;12.50;;;3.13;;
47617;SDS011;33336;36.728;-4.414;2022-09-16T20:15:23;10.35;;;2.53;;
47617;SDS011;33336;36.728;-4.414;2022-09-16T20:20:27;7.75;;;2.97;;
47617;SDS011;33336;36.728;-4.414;2022-09-16T20:25:31;12.45;;;3.67;;
47617;SDS011;33336;36.728;-4.414;2022-09-16T20:30:34;12.38;;;4.05;;
47617;SDS011;33336;36.728;-4.414;2022-09-16T20:35:38;5.70;;;2.83;;
47617;SDS011;33336;36.728;-4.414;2022-09-16T20:40:41;12.65;;;3.10;;
47617;SDS011;33336;36.728;-4.414;2022-09-16T20:45:45;8.65;;;2.53;;
47617;SDS011;33336;36.728;-4.414;2022-09-16T20:50:49;11.68;;;3.08;;
47617;SDS011;33336;36.728;-4.414;2022-09-16T20:55:58;9.80;;;2.70;;
47617;SDS011;33336;36.728;-4.414;2022-09-16T21:01:03;9.85;;;3.30;;
47617;SDS011;33336;36.728;-4.414;2022-09-16T21:06:09;12.00;;;3.90;;
47617;SDS011;33336;36.728;-4.414;2022-09-16T21:11:14;7.95;;;3.55;;
47617;SDS011;33336;36.728;-4.414;2022-09-16T21:16:19;8.02;;;2.75;;
47617;SDS011;33336;36.728;-4.414;2022-09-16T21:21:24;5.10;;;2.80;;
47617;SDS011;33336;36.728;-4.414;2022-09-16T21:26:29;7.70;;;2.83;;
47617;SDS011;33336;36.728;-4.414;2022-09-16T21:31:33;8.98;;;3.05;;
47617;SDS011;33336;36.728;-4.414;2022-09-16T21:36:39;11.20;;;4.15;;
47617;SDS011;33336;36.728;-4.414;2022-09-16T21:41:44;6.40;;;3.35;;
47617;SDS011;33336;36.728;-4.414;2022-09-16T21:46:49;15.07;;;4.35;;
47617;SDS011;33336;36.728;-4.414;2022-09-16T21:51:53;8.32;;;2.75;;
47617;SDS011;33336;36.728;-4.414;2022-09-16T21:56:58;7.85;;;3.95;;
47617;SDS011;33336;36.728;-4.414;2022-09-16T22:02:01;11.75;;;3.63;;
47617;SDS011;33336;36.728;-4.414;2022-09-16T22:07:05;7.60;;;3.08;;
47617;SDS011;33336;36.728;-4.414;2022-09-16T22:12:10;10.43;;;3.85;;
47617;SDS011;33336;36.728;-4.414;2022-09-16T22:17:14;8.50;;;3.65;;
47617;SDS011;33336;36.728;-4.414;2022-09-16T22:22:19;7.53;;;3.13;;
47617;SDS011;33336;36.728;-4.414;2022-09-16T22:27:23;10.50;;;3.67;;
47617;SDS011;33336;36.728;-4.414;2022-09-16T22:32:26;12.52;;;3.92;;
47617;SDS011;33336;36.728;-4.414;2022-09-16T22:37:30;8.88;;;3.38;;
47617;SDS011;33336;36.728;-4.414;2022-09-16T22:42:33;11.75;;;4.78;;
47617;SDS011;33336;36.728;-4.414;2022-09-16T22:47:37;8.82;;;4.22;;
47617;SDS011;33336;36.728;-4.414;2022-09-16T22:52:41;10.70;;;4.40;;
47617;SDS011;33336;36.728;-4.414;2022-09-16T22:57:45;12.48;;;3.83;;
47617;SDS011;33336;36.728;-4.414;2022-09-16T23:02:48;10.30;;;3.60;;
47617;SDS011;33336;36.728;-4.414;2022-09-16T23:07:52;12.20;;;4.35;;
47617;SDS011;33336;36.728;-4.414;2022-09-16T23:12:56;10.68;;;4.57;;
47617;SDS011;33336;36.728;-4.414;2022-09-16T23:18:00;10.23;;;5.07;;
47617;SDS011;33336;36.728;-4.414;2022-09-16T23:23:04;14.98;;;5.38;;
47617;SDS011;33336;36.728;-4.414;2022-09-16T23:28:08;11.82;;;5.30;;
47617;SDS011;33336;36.728;-4.414;2022-09-16T23:33:10;13.52;;;5.50;;
47617;SDS011;33336;36.728;-4.414;2022-09-16T23:38:15;16.08;;;6.72;;
47617;SDS011;33336;36.728;-4.414;2022-09-16T23:43:18;15.30;;;5.30;;
47617;SDS011;33336;36.728;-4.414;2022-09-16T23:48:22;19.70;;;5.88;;
47617;SDS011;33336;36.728;-4.414;2022-09-16T23:53:26;10.18;;;5.50;;
47617;SDS011;33336;36.728;-4.414;2022-09-16T23:58:30;14.95;;;6.28;;
